Time;durP1;ratioP1;P1;durP2;ratioP2;P2;SDS_P1;SDS_P2;PMS_P1;PMS_P2;Temp;Humidity;BMP_temperature;BMP_pressure;BME280_temperature;BME280_humidity;BME280_pressure;Samples;Min_cycle;Max_cycle;Signal;HPM_P1;HPM_P2
2023/02/19 00:01:41;;;;;;;178.45;100.25;;;7.60;99.90;;;;;;5059377;28;20484;-76
2023/02/19 00:04:12;;;;;;;184.98;98.45;;;7.70;99.90;;;;;;5058695;28;20074;-76
2023/02/19 00:06:39;;;;;;;183.40;96.65;;;7.70;99.90;;;;;;5064385;28;20035;-77
2023/02/19 00:09:04;;;;;;;190.40;104.13;;;7.70;99.90;;;;;;5060126;28;20017;-77
2023/02/19 00:11:32;;;;;;;183.07;103.18;;;7.70;99.90;;;;;;5077293;28;20035;-77
2023/02/19 00:14:00;;;;;;;178.23;99.13;;;7.70;99.90;;;;;;5102503;28;20020;-76
2023/02/19 00:16:34;;;;;;;168.07;95.85;;;7.80;99.90;;;;;;5099609;28;20059;-77
2023/02/19 00:19:02;;;;;;;181.10;97.40;;;7.70;99.90;;;;;;5098839;28;20472;-77
2023/02/19 00:21:28;;;;;;;175.38;98.28;;;7.70;99.90;;;;;;5101259;28;20028;-76
2023/02/19 00:23:57;;;;;;;181.45;98.18;;;7.70;99.90;;;;;;5103628;28;20051;-77
2023/02/19 00:26:26;;;;;;;188.13;102.70;;;7.70;99.90;;;;;;5100894;28;20479;-77
2023/02/19 00:28:56;;;;;;;186.60;103.28;;;7.70;99.90;;;;;;5083523;28;20050;-77
2023/02/19 00:31:24;;;;;;;202.05;105.72;;;7.70;99.90;;;;;;5099376;28;20051;-76
2023/02/19 00:33:53;;;;;;;205.77;109.38;;;7.70;99.90;;;;;;5099763;28;20024;-77
2023/02/19 00:36:19;;;;;;;208.35;108.35;;;7.70;99.90;;;;;;5102220;28;20032;-77
2023/02/19 00:38:46;;;;;;;206.60;111.22;;;7.70;99.90;;;;;;5100488;28;20399;-76
2023/02/19 00:41:22;;;;;;;205.05;111.07;;;7.80;99.90;;;;;;5085685;28;20070;-77
2023/02/19 00:43:51;;;;;;;214.00;110.82;;;7.80;99.90;;;;;;5101371;28;20032;-77
2023/02/19 00:46:20;;;;;;;233.73;116.47;;;7.80;99.90;;;;;;5103360;28;20484;-76
2023/02/19 00:48:46;;;;;;;223.80;118.68;;;7.80;99.90;;;;;;5101025;28;20024;-77
2023/02/19 00:51:13;;;;;;;226.73;116.35;;;7.80;99.90;;;;;;5101222;28;20032;-77
2023/02/19 00:53:38;;;;;;;216.88;116.63;;;7.80;99.90;;;;;;5084452;28;20026;-77
2023/02/19 00:56:05;;;;;;;203.85;113.93;;;7.80;99.90;;;;;;5100018;28;20024;-76
2023/02/19 00:58:31;;;;;;;213.63;112.72;;;7.90;99.90;;;;;;5076252;28;20032;-76
2023/02/19 01:00:57;;;;;;;205.75;112.95;;;7.90;99.90;;;;;;5100205;28;20081;-76
2023/02/19 01:03:23;;;;;;;212.25;110.57;;;7.90;99.90;;;;;;5092646;28;20035;-77
2023/02/19 01:05:50;;;;;;;215.52;114.53;;;7.90;99.90;;;;;;5081869;28;20039;-76
2023/02/19 01:08:16;;;;;;;226.27;119.68;;;7.90;99.90;;;;;;5106520;28;20015;-77
2023/02/19 01:10:42;;;;;;;213.07;114.32;;;7.90;99.90;;;;;;5084762;28;20403;-78
2023/02/19 01:13:07;;;;;;;218.43;115.13;;;8.00;99.90;;;;;;5087543;28;20068;-78
2023/02/19 01:15:33;;;;;;;233.20;121.15;;;7.90;99.90;;;;;;5104018;28;20141;-78
2023/02/19 01:17:59;;;;;;;230.65;117.63;;;8.00;99.90;;;;;;5099455;28;20028;-77
2023/02/19 01:20:26;;;;;;;220.18;115.78;;;8.00;99.90;;;;;;5105824;28;20028;-76
2023/02/19 01:22:52;;;;;;;215.23;115.95;;;8.00;99.90;;;;;;5101822;28;20389;-77
2023/02/19 01:25:18;;;;;;;209.98;114.00;;;7.90;99.90;;;;;;5104973;28;20072;-77
2023/02/19 01:27:44;;;;;;;216.60;114.68;;;8.00;99.90;;;;;;5109536;28;20024;-76
2023/02/19 01:30:10;;;;;;;223.18;118.53;;;7.90;99.90;;;;;;5081184;28;20020;-77
2023/02/19 01:32:35;;;;;;;219.15;118.25;;;7.90;99.90;;;;;;5096986;28;20392;-76
2023/02/19 01:35:01;;;;;;;227.18;119.38;;;7.90;99.90;;;;;;5086175;28;20356;-77
2023/02/19 01:37:27;;;;;;;230.43;123.65;;;8.00;99.90;;;;;;5106089;28;20024;-76
2023/02/19 01:39:52;;;;;;;224.68;120.38;;;8.00;99.90;;;;;;5103528;28;20024;-77
2023/02/19 01:42:19;;;;;;;223.38;118.57;;;8.00;99.90;;;;;;5104901;28;20035;-77
2023/02/19 01:44:44;;;;;;;224.60;118.82;;;8.00;99.90;;;;;;5105058;28;20024;-77
2023/02/19 01:47:11;;;;;;;220.90;118.07;;;8.10;99.90;;;;;;5084375;28;20396;-76
2023/02/19 01:49:53;;;;;;;218.23;117.90;;;8.10;99.90;;;;;;5106301;28;20019;-77
2023/02/19 01:52:33;;;;;;;225.55;120.20;;;8.10;99.90;;;;;;5103168;28;20027;-77
2023/02/19 01:55:01;;;;;;;218.40;114.90;;;8.10;99.90;;;;;;5102576;28;20474;-76
2023/02/19 01:57:35;;;;;;;226.18;118.40;;;8.00;99.90;;;;;;5100411;23;20057;-77
2023/02/19 02:00:12;;;;;;;219.80;117.57;;;8.10;99.90;;;;;;5014419;28;20400;-77
2023/02/19 02:02:41;;;;;;;214.82;115.47;;;8.00;99.90;;;;;;5030641;28;20021;-77
2023/02/19 02:05:23;;;;;;;226.90;119.03;;;8.00;99.90;;;;;;5025858;28;20032;-77
2023/02/19 02:10:33;;;;;;;222.18;118.65;;;8.00;99.90;;;;;;5035327;28;20032;-77
2023/02/19 02:12:59;;;;;;;225.57;122.25;;;8.00;99.90;;;;;;5034259;28;20022;-77
2023/02/19 02:15:38;;;;;;;241.00;121.82;;;8.00;99.90;;;;;;5034225;28;20049;-77
2023/02/19 02:18:28;;;;;;;232.27;119.10;;;8.00;99.90;;;;;;5029860;28;20022;-77
2023/02/19 02:21:23;;;;;;;222.05;119.53;;;8.00;99.90;;;;;;5013067;28;20029;-77
2023/02/19 02:24:17;;;;;;;233.20;119.47;;;8.00;99.90;;;;;;5031827;28;20400;-77
2023/02/19 02:26:45;;;;;;;229.15;117.95;;;8.10;99.90;;;;;;5032284;28;20083;-77
2023/02/19 02:29:20;;;;;;;222.35;119.90;;;8.10;99.90;;;;;;5013389;28;20057;-77
2023/02/19 02:32:11;;;;;;;222.02;117.80;;;8.10;99.90;;;;;;5027741;28;20033;-77
2023/02/19 02:34:48;;;;;;;232.60;121.43;;;8.10;99.90;;;;;;5014590;28;20384;-77
2023/02/19 02:37:15;;;;;;;224.70;120.95;;;8.10;99.90;;;;;;5030866;28;20017;-77
2023/02/19 02:39:43;;;;;;;224.82;116.75;;;8.10;99.90;;;;;;5015794;28;20455;-77
2023/02/19 02:42:27;;;;;;;213.38;113.72;;;8.10;99.90;;;;;;5033316;28;20034;-77
2023/02/19 02:48:00;;;;;;;222.50;117.60;;;8.10;99.90;;;;;;5032045;28;20492;-77
2023/02/19 02:50:33;;;;;;;222.95;116.85;;;8.20;99.90;;;;;;5030489;28;20120;-77
2023/02/19 02:55:52;;;;;;;217.82;118.95;;;8.10;99.90;;;;;;5030119;28;20044;-77
2023/02/19 02:58:21;;;;;;;215.57;114.93;;;8.20;99.90;;;;;;5033014;28;20176;-77
2023/02/19 03:03:44;;;;;;;212.20;115.32;;;8.10;99.90;;;;;;5033303;28;20072;-77
2023/02/19 03:06:14;;;;;;;203.43;111.70;;;8.10;99.90;;;;;;5032767;28;20057;-77
2023/02/19 03:08:54;;;;;;;211.15;115.35;;;8.10;99.90;;;;;;5032764;28;20075;-77
2023/02/19 03:20:21;;;;;;;229.93;118.68;;;8.00;99.90;;;;;;5032075;28;20032;-77
2023/02/19 03:22:49;;;;;;;219.85;115.60;;;8.00;99.90;;;;;;5029112;28;20024;-77
2023/02/19 03:28:07;;;;;;;230.57;116.38;;;8.00;99.90;;;;;;5030416;28;20443;-77
2023/02/19 03:30:38;;;;;;;221.88;117.00;;;8.00;99.90;;;;;;5031362;28;20045;-77
2023/02/19 03:33:17;;;;;;;220.47;115.47;;;8.00;99.90;;;;;;5025425;28;20400;-77
2023/02/19 03:35:51;;;;;;;225.43;119.10;;;8.00;99.90;;;;;;5022554;28;20268;-77
2023/02/19 03:38:40;;;;;;;219.10;117.53;;;8.00;99.90;;;;;;5032503;28;20493;-77
2023/02/19 03:41:09;;;;;;;230.82;119.20;;;8.00;99.90;;;;;;5030454;28;20402;-77
2023/02/19 03:44:00;;;;;;;228.48;122.22;;;8.00;99.90;;;;;;5031961;28;20385;-77
2023/02/19 03:46:42;;;;;;;242.23;125.10;;;8.10;99.90;;;;;;5014359;28;20092;-77
2023/02/19 03:49:22;;;;;;;238.05;125.20;;;8.10;99.90;;;;;;5032166;28;20072;-78
2023/02/19 03:52:01;;;;;;;238.95;124.22;;;8.10;99.90;;;;;;5012270;28;20280;-77
2023/02/19 03:54:38;;;;;;;252.70;126.93;;;8.10;99.90;;;;;;5028872;28;20233;-77
2023/02/19 03:57:15;;;;;;;241.35;121.70;;;8.10;99.90;;;;;;5031869;28;20054;-77
2023/02/19 04:00:04;;;;;;;244.05;124.20;;;8.10;99.90;;;;;;5025957;28;20064;-77
2023/02/19 04:02:48;;;;;;;238.50;123.47;;;8.10;99.90;;;;;;5029597;28;20104;-77
2023/02/19 04:05:21;;;;;;;240.70;123.97;;;8.10;99.90;;;;;;5029496;28;20420;-77
2023/02/19 04:07:51;;;;;;;237.05;122.55;;;8.00;99.90;;;;;;5031933;28;20029;-78
2023/02/19 04:10:18;;;;;;;235.38;124.00;;;8.00;99.90;;;;;;5028723;28;20181;-77
2023/02/19 04:12:51;;;;;;;240.80;121.88;;;8.00;99.90;;;;;;5031832;28;20075;-77
2023/02/19 04:15:22;;;;;;;226.65;115.97;;;8.00;99.90;;;;;;5031677;28;20527;-77
2023/02/19 04:17:51;;;;;;;243.18;121.57;;;8.00;99.90;;;;;;5013949;28;20117;-77
2023/02/19 04:20:18;;;;;;;249.63;123.32;;;8.00;99.90;;;;;;5031772;28;20159;-77
2023/02/19 04:22:45;;;;;;;241.25;127.40;;;8.00;99.90;;;;;;5002555;28;20022;-77
2023/02/19 04:25:10;;;;;;;241.60;121.88;;;8.00;99.90;;;;;;5031688;28;20022;-77
2023/02/19 04:27:37;;;;;;;242.45;126.00;;;8.00;99.90;;;;;;5031659;28;20123;-77
2023/02/19 04:30:05;;;;;;;241.32;121.63;;;8.00;99.90;;;;;;5028857;28;20029;-77
2023/02/19 04:32:30;;;;;;;231.73;120.90;;;8.00;99.90;;;;;;5031181;28;20101;-77
2023/02/19 04:34:56;;;;;;;235.15;119.88;;;8.10;99.90;;;;;;5031717;28;20022;-77
2023/02/19 04:37:22;;;;;;;221.13;116.38;;;8.00;99.90;;;;;;5013934;28;20024;-77
2023/02/19 04:39:47;;;;;;;225.98;115.72;;;8.00;99.90;;;;;;5031248;28;20026;-77
2023/02/19 04:42:13;;;;;;;239.00;123.13;;;8.00;99.90;;;;;;5034891;28;20389;-77
2023/02/19 04:44:39;;;;;;;229.55;122.35;;;8.00;99.90;;;;;;5025381;28;20491;-77
2023/02/19 04:47:04;;;;;;;233.75;118.90;;;8.00;99.90;;;;;;5017542;28;20116;-77
2023/02/19 04:49:30;;;;;;;234.15;116.97;;;8.00;99.90;;;;;;5035360;28;20083;-77
2023/02/19 04:51:56;;;;;;;221.65;115.35;;;8.10;99.90;;;;;;5010156;28;20030;-78
2023/02/19 04:54:21;;;;;;;230.68;120.13;;;8.00;99.90;;;;;;5035456;28;20037;-77
2023/02/19 04:56:49;;;;;;;236.82;122.18;;;8.00;99.90;;;;;;5035113;28;20104;-77
2023/02/19 04:59:15;;;;;;;227.35;120.53;;;8.00;99.90;;;;;;5035564;28;20075;-77
2023/02/19 05:01:41;;;;;;;230.98;118.18;;;8.00;99.90;;;;;;5030983;28;20391;-77
2023/02/19 05:04:06;;;;;;;222.70;116.78;;;8.00;99.90;;;;;;5034164;28;20083;-77
2023/02/19 05:06:32;;;;;;;227.57;115.93;;;8.10;99.90;;;;;;5006028;28;20026;-77
2023/02/19 05:08:58;;;;;;;223.75;116.13;;;8.10;99.90;;;;;;5035174;28;20037;-77
2023/02/19 05:11:23;;;;;;;225.77;114.68;;;8.00;99.90;;;;;;5009548;28;20030;-77
2023/02/19 05:13:49;;;;;;;226.20;119.70;;;8.00;99.90;;;;;;5035017;28;20068;-77
2023/02/19 05:16:15;;;;;;;230.35;117.45;;;8.00;99.90;;;;;;5034927;28;20030;-77
2023/02/19 05:18:43;;;;;;;229.77;118.70;;;8.00;99.90;;;;;;5017085;28;20037;-77
2023/02/19 05:21:10;;;;;;;226.30;117.45;;;8.00;99.90;;;;;;5034758;28;20075;-77
2023/02/19 05:23:36;;;;;;;222.55;115.45;;;8.00;99.90;;;;;;5034812;28;20025;-78
2023/02/19 05:26:06;;;;;;;208.82;110.05;;;8.00;99.90;;;;;;5005507;28;20049;-77
2023/02/19 05:28:32;;;;;;;226.18;118.03;;;7.90;99.90;;;;;;5034925;28;20017;-77
2023/02/19 05:31:05;;;;;;;236.52;118.95;;;8.00;99.90;;;;;;5016472;28;20032;-77
2023/02/19 05:33:31;;;;;;;230.05;119.90;;;8.00;99.90;;;;;;5034434;28;20032;-77
2023/02/19 05:35:57;;;;;;;231.77;121.80;;;8.00;99.90;;;;;;5034669;28;20029;-77
2023/02/19 05:38:23;;;;;;;229.05;117.85;;;8.00;99.90;;;;;;5034481;28;20373;-77
2023/02/19 05:40:49;;;;;;;228.00;116.72;;;7.90;99.90;;;;;;5016735;28;20025;-78
2023/02/19 05:43:15;;;;;;;248.07;123.55;;;7.90;99.90;;;;;;5025606;28;20041;-78
2023/02/19 05:45:41;;;;;;;229.02;118.55;;;8.00;99.90;;;;;;5034526;28;20135;-77
2023/02/19 05:48:07;;;;;;;226.27;117.88;;;8.00;99.90;;;;;;5034244;28;20036;-78
2023/02/19 05:50:34;;;;;;;238.52;120.00;;;8.00;99.90;;;;;;5034340;28;20100;-77
2023/02/19 05:53:01;;;;;;;234.98;121.40;;;7.90;99.90;;;;;;5023453;28;20461;-77
2023/02/19 05:55:28;;;;;;;232.50;119.70;;;7.90;99.90;;;;;;5016646;28;20026;-77
2023/02/19 05:57:54;;;;;;;230.18;122.15;;;8.00;99.90;;;;;;5034002;28;20049;-77
2023/02/19 06:00:20;;;;;;;244.30;120.68;;;7.90;99.90;;;;;;5020178;28;20113;-77
2023/02/19 06:02:46;;;;;;;230.05;120.57;;;7.90;99.90;;;;;;5033874;28;20050;-77
2023/02/19 06:05:12;;;;;;;230.05;119.00;;;7.90;99.90;;;;;;5012718;28;20029;-77
2023/02/19 06:07:38;;;;;;;246.82;122.10;;;7.90;99.90;;;;;;5033864;28;20095;-77
2023/02/19 06:10:11;;;;;;;247.10;128.88;;;7.80;99.90;;;;;;5033918;28;20026;-77
2023/02/19 06:12:37;;;;;;;243.82;127.35;;;7.80;99.90;;;;;;5023991;28;20572;-77
2023/02/19 06:15:05;;;;;;;251.95;129.00;;;7.80;99.90;;;;;;5016269;28;20028;-77
2023/02/19 06:17:34;;;;;;;255.52;129.35;;;7.80;99.90;;;;;;5033761;28;20032;-77
2023/02/19 06:20:00;;;;;;;255.68;131.55;;;7.70;99.90;;;;;;5024180;28;20025;-76
2023/02/19 06:22:26;;;;;;;266.42;131.60;;;7.80;99.90;;;;;;5033584;28;20032;-77
2023/02/19 06:24:52;;;;;;;260.17;132.88;;;7.70;99.90;;;;;;5033632;28;20104;-77
2023/02/19 06:27:18;;;;;;;269.45;138.82;;;7.80;99.90;;;;;;5024782;28;20137;-77
2023/02/19 06:29:43;;;;;;;257.58;133.00;;;7.80;99.90;;;;;;5015844;28;20033;-77
2023/02/19 06:32:09;;;;;;;260.58;130.70;;;7.80;99.90;;;;;;5025544;28;20025;-77
2023/02/19 06:34:35;;;;;;;273.13;134.38;;;7.80;99.90;;;;;;5015765;28;20082;-77
2023/02/19 06:37:01;;;;;;;264.58;132.50;;;7.90;99.90;;;;;;5025674;28;20485;-77
2023/02/19 06:39:27;;;;;;;274.73;132.50;;;7.90;99.90;;;;;;5033433;28;20101;-77
2023/02/19 06:41:57;;;;;;;252.23;126.35;;;7.90;99.90;;;;;;5015414;28;20460;-77
2023/02/19 06:44:23;;;;;;;257.00;128.65;;;7.90;99.90;;;;;;5033356;28;20028;-77
2023/02/19 06:46:49;;;;;;;256.08;133.63;;;8.00;99.90;;;;;;5024257;28;20071;-77
2023/02/19 06:49:15;;;;;;;268.35;134.13;;;8.00;99.90;;;;;;5015197;28;20025;-77
2023/02/19 06:51:41;;;;;;;261.15;131.15;;;8.10;99.90;;;;;;5033090;28;20025;-77
2023/02/19 06:54:06;;;;;;;269.88;137.73;;;8.10;99.90;;;;;;5032944;28;20429;-77
2023/02/19 06:56:36;;;;;;;262.58;135.63;;;8.10;99.90;;;;;;5032660;28;20033;-77
2023/02/19 06:59:04;;;;;;;266.48;132.45;;;8.10;99.90;;;;;;5032906;28;20113;-77
2023/02/19 07:01:31;;;;;;;257.23;128.77;;;8.10;99.90;;;;;;5014499;28;20098;-77
2023/02/19 07:03:57;;;;;;;267.13;138.57;;;8.10;99.90;;;;;;5014875;28;20029;-77
2023/02/19 07:06:24;;;;;;;276.00;137.15;;;8.10;99.90;;;;;;5032624;28;20033;-77
2023/02/19 07:08:51;;;;;;;254.07;133.32;;;8.10;99.90;;;;;;5032849;28;20120;-77
2023/02/19 07:11:20;;;;;;;267.20;137.40;;;8.10;99.90;;;;;;5032549;28;20037;-77
2023/02/19 07:13:46;;;;;;;272.73;137.52;;;8.10;99.90;;;;;;5023723;28;20021;-77
2023/02/19 07:16:12;;;;;;;276.17;140.98;;;8.10;99.90;;;;;;5014910;28;20045;-77
2023/02/19 07:18:39;;;;;;;278.25;140.27;;;8.10;99.90;;;;;;5032377;28;20053;-77
2023/02/19 07:21:11;;;;;;;288.35;144.05;;;8.10;99.90;;;;;;5014789;28;20463;-77
2023/02/19 07:23:37;;;;;;;276.05;142.55;;;8.10;99.90;;;;;;5022017;28;20515;-77
2023/02/19 07:26:03;;;;;;;277.45;146.50;;;8.10;99.90;;;;;;5023129;28;20029;-78
2023/02/19 07:28:29;;;;;;;295.02;148.75;;;8.10;99.90;;;;;;5032334;28;20032;-77
2023/02/19 07:31:04;;;;;;;293.23;146.50;;;8.10;99.90;;;;;;5028099;28;20021;-77
2023/02/19 07:33:30;;;;;;;287.73;146.30;;;8.10;99.90;;;;;;5032168;28;20047;-77
2023/02/19 07:35:56;;;;;;;292.27;144.27;;;8.10;99.90;;;;;;5032248;28;20480;-77
2023/02/19 07:38:23;;;;;;;292.88;149.60;;;8.10;99.90;;;;;;5032134;28;20109;-77
2023/02/19 07:40:50;;;;;;;297.08;150.55;;;8.10;99.90;;;;;;5032099;28;20079;-78
2023/02/19 07:43:16;;;;;;;288.88;149.68;;;8.20;99.90;;;;;;5010934;28;20069;-77
2023/02/19 07:45:41;;;;;;;299.80;148.15;;;8.20;99.90;;;;;;5031963;28;20045;-77
2023/02/19 07:48:07;;;;;;;289.33;145.85;;;8.20;99.90;;;;;;5031872;28;20068;-77
2023/02/19 07:50:32;;;;;;;282.63;143.60;;;8.20;99.90;;;;;;5032008;28;20108;-77
2023/02/19 07:52:58;;;;;;;284.65;146.98;;;8.30;99.90;;;;;;5031936;28;20108;-77
2023/02/19 07:55:24;;;;;;;285.02;145.52;;;8.20;99.90;;;;;;5003010;28;20022;-77
2023/02/19 07:57:50;;;;;;;290.30;149.07;;;8.30;99.90;;;;;;5028028;28;20099;-77
2023/02/19 08:00:15;;;;;;;294.42;148.15;;;8.30;99.90;;;;;;5028200;28;20030;-77
2023/02/19 08:02:59;;;;;;;285.88;145.90;;;8.30;99.90;;;;;;5020251;28;20511;-77
2023/02/19 08:05:30;;;;;;;286.50;147.43;;;8.30;99.90;;;;;;5029256;28;20034;-78
2023/02/19 08:07:56;;;;;;;288.77;146.35;;;8.30;99.90;;;;;;5031750;28;20072;-77
2023/02/19 08:13:24;;;;;;;289.83;145.27;;;8.40;99.90;;;;;;5031716;28;20060;-77
2023/02/19 08:15:50;;;;;;;297.10;146.60;;;8.40;99.90;;;;;;5022215;28;20026;-77
2023/02/19 08:18:18;;;;;;;279.73;147.02;;;8.40;99.90;;;;;;5031505;28;20063;-77
2023/02/19 08:20:44;;;;;;;285.08;146.73;;;8.50;99.90;;;;;;5031392;28;20041;-77
2023/02/19 08:23:11;;;;;;;276.38;139.52;;;8.50;99.90;;;;;;5031654;28;20034;-77
2023/02/19 08:25:37;;;;;;;292.52;145.20;;;8.50;99.90;;;;;;5030606;28;20061;-77
2023/02/19 08:28:04;;;;;;;276.15;139.43;;;8.60;99.90;;;;;;5032666;28;20036;-77
2023/02/19 08:30:30;;;;;;;300.75;152.18;;;8.60;99.90;;;;;;5032276;28;20025;-77
2023/02/19 08:32:58;;;;;;;282.42;142.10;;;8.60;99.90;;;;;;5026742;28;20384;-77
2023/02/19 08:35:24;;;;;;;284.25;145.00;;;8.60;99.90;;;;;;5032649;28;20036;-77
2023/02/19 08:37:49;;;;;;;284.67;146.10;;;8.60;99.90;;;;;;5032492;28;20041;-77
2023/02/19 08:40:15;;;;;;;285.13;143.10;;;8.60;99.90;;;;;;5012830;28;20528;-77
2023/02/19 08:42:41;;;;;;;286.30;144.38;;;8.70;99.90;;;;;;5014572;28;20481;-77
2023/02/19 08:45:07;;;;;;;283.73;145.77;;;8.70;99.90;;;;;;5032575;28;20116;-77
2023/02/19 08:47:34;;;;;;;342.05;173.43;;;8.70;99.90;;;;;;5032331;28;20426;-77
2023/02/19 08:50:05;;;;;;;325.80;163.70;;;8.70;99.90;;;;;;5032610;28;20361;-77
2023/02/19 08:52:31;;;;;;;303.42;151.15;;;8.80;99.90;;;;;;5032381;28;20403;-77
2023/02/19 08:54:57;;;;;;;291.80;150.00;;;8.80;99.90;;;;;;5032485;28;20064;-77
2023/02/19 08:57:23;;;;;;;280.20;144.25;;;8.80;99.90;;;;;;5014340;28;20080;-77
2023/02/19 08:59:49;;;;;;;281.42;143.70;;;8.80;99.90;;;;;;5031880;28;20033;-77
2023/02/19 09:02:15;;;;;;;272.63;142.70;;;8.90;99.90;;;;;;5031674;28;20087;-77
2023/02/19 09:04:41;;;;;;;280.65;140.18;;;8.90;99.90;;;;;;5030719;28;20033;-77
2023/02/19 09:07:09;;;;;;;278.05;142.57;;;8.80;99.90;;;;;;5032064;28;20037;-77
2023/02/19 09:09:38;;;;;;;268.52;141.07;;;8.90;99.90;;;;;;5032398;28;20021;-77
2023/02/19 09:12:08;;;;;;;275.50;140.68;;;8.90;99.90;;;;;;5014574;28;20018;-77
2023/02/19 09:14:34;;;;;;;277.08;141.73;;;8.90;99.90;;;;;;5032163;28;20026;-77
2023/02/19 09:17:02;;;;;;;266.08;140.57;;;8.90;99.90;;;;;;5031881;28;20033;-77
2023/02/19 09:19:28;;;;;;;275.08;141.98;;;9.00;99.90;;;;;;5031855;28;20037;-77
2023/02/19 09:21:54;;;;;;;274.48;137.23;;;9.00;99.90;;;;;;5032263;28;20029;-77
2023/02/19 09:24:20;;;;;;;266.75;138.80;;;9.00;99.90;;;;;;5031888;28;20029;-78
2023/02/19 09:26:49;;;;;;;272.70;141.32;;;9.10;99.90;;;;;;5032939;28;20400;-77
2023/02/19 09:29:16;;;;;;;277.38;138.75;;;9.10;99.90;;;;;;5035869;28;20110;-77
2023/02/19 09:31:41;;;;;;;281.08;140.73;;;9.10;99.90;;;;;;5018497;28;20104;-77
2023/02/19 09:34:07;;;;;;;272.23;137.43;;;9.20;99.90;;;;;;5017880;28;20064;-77
2023/02/19 09:36:33;;;;;;;265.85;136.95;;;9.20;99.90;;;;;;5035616;28;20033;-77
2023/02/19 09:39:00;;;;;;;274.75;137.98;;;9.20;99.90;;;;;;5017950;28;20057;-77
2023/02/19 09:41:32;;;;;;;260.45;133.32;;;9.20;99.90;;;;;;5035217;28;20021;-78
2023/02/19 09:43:59;;;;;;;287.77;140.90;;;9.30;99.90;;;;;;5035464;28;20032;-77
2023/02/19 09:46:44;;;;;;;258.80;133.48;;;9.30;99.90;;;;;;5035197;28;20030;-77
2023/02/19 09:49:25;;;;;;;272.08;136.85;;;9.40;99.90;;;;;;5026836;28;20025;-77
2023/02/19 09:52:06;;;;;;;261.75;135.55;;;9.40;99.90;;;;;;5033738;28;20479;-77
2023/02/19 09:54:33;;;;;;;265.48;138.35;;;9.30;99.90;;;;;;5017216;28;20401;-77
2023/02/19 09:57:03;;;;;;;273.55;137.60;;;9.30;99.90;;;;;;5033536;28;20133;-77
2023/02/19 09:59:35;;;;;;;274.13;139.02;;;9.40;99.90;;;;;;5034661;28;20021;-77
2023/02/19 10:02:14;;;;;;;284.63;151.85;;;9.40;99.90;;;;;;5030678;28;20029;-77
2023/02/19 10:04:42;;;;;;;269.70;140.57;;;9.40;99.90;;;;;;5033573;28;20056;-77
2023/02/19 10:07:27;;;;;;;264.67;136.35;;;9.50;99.90;;;;;;5035018;28;20033;-77
2023/02/19 10:10:13;;;;;;;281.00;140.23;;;9.50;99.90;;;;;;5017251;28;20469;-77
2023/02/19 10:12:44;;;;;;;275.83;140.80;;;9.50;99.90;;;;;;5035197;28;20358;-77
2023/02/19 10:15:56;;;;;;;267.83;140.50;;;9.50;99.90;;;;;;5035257;28;20112;-77
2023/02/19 10:18:27;;;;;;;261.35;135.43;;;9.50;99.90;;;;;;5028965;28;20607;-77
2023/02/19 10:21:40;;;;;;;282.00;141.55;;;9.60;99.90;;;;;;5016358;28;20022;-77
2023/02/19 10:24:06;;;;;;;;;;;9.70;99.90;;;;;;5028767;28;20033;-80
2023/02/19 10:26:35;;;;;;;269.73;143.10;;;9.70;99.90;;;;;;5033070;28;19913;-80
2023/02/19 10:29:02;;;;;;;269.08;138.90;;;9.70;99.90;;;;;;5034974;28;20026;-77
2023/02/19 10:31:31;;;;;;;263.35;140.30;;;9.80;99.90;;;;;;5032707;28;20030;-77
2023/02/19 10:34:01;;;;;;;277.65;146.15;;;9.90;99.90;;;;;;5033483;28;20141;-77
2023/02/19 10:36:39;;;;;;;268.20;144.15;;;9.90;99.90;;;;;;5033988;28;20075;-77
2023/02/19 10:39:41;;;;;;;271.90;144.82;;;10.00;99.90;;;;;;5029219;28;20033;-77
2023/02/19 10:42:20;;;;;;;271.08;143.55;;;10.00;99.90;;;;;;4989030;28;20038;-77
2023/02/19 10:45:16;;;;;;;277.45;145.73;;;10.00;99.90;;;;;;5049937;28;20060;-77
2023/02/19 10:47:55;;;;;;;269.88;145.13;;;10.00;99.90;;;;;;5007553;28;20045;-77
2023/02/19 10:50:32;;;;;;;264.85;139.32;;;10.10;99.90;;;;;;5034187;28;20071;-77
2023/02/19 10:53:00;;;;;;;276.90;141.85;;;10.10;99.90;;;;;;5015668;28;20123;-77
2023/02/19 10:55:37;;;;;;;272.05;143.30;;;10.20;99.90;;;;;;5034146;28;20037;-75
2023/02/19 10:58:26;;;;;;;265.95;139.65;;;10.30;99.90;;;;;;5032232;28;20049;-74
2023/02/19 11:01:20;;;;;;;264.17;140.90;;;10.30;99.90;;;;;;5013046;28;20163;-77
2023/02/19 11:03:48;;;;;;;257.77;140.15;;;10.30;99.90;;;;;;5014295;28;20362;-77
2023/02/19 11:06:16;;;;;;;261.65;138.52;;;10.30;99.90;;;;;;4996556;28;20477;-75
2023/02/19 11:08:48;;;;;;;259.50;135.15;;;10.30;99.90;;;;;;5029655;28;20105;-75
2023/02/19 11:11:27;;;;;;;252.88;136.75;;;10.40;99.90;;;;;;5020036;28;20021;-75
2023/02/19 11:13:57;;;;;;;255.35;134.82;;;10.40;99.90;;;;;;5033780;28;20440;-74
2023/02/19 11:16:35;;;;;;;247.15;132.10;;;10.40;99.90;;;;;;5033517;28;20554;-75
2023/02/19 11:19:01;;;;;;;253.65;133.45;;;10.50;99.90;;;;;;5033178;28;20022;-75
2023/02/19 11:21:32;;;;;;;262.10;136.32;;;10.60;99.90;;;;;;5033693;28;20036;-75
2023/02/19 11:24:01;;;;;;;252.87;138.63;;;10.60;99.90;;;;;;5015841;28;20029;-75
2023/02/19 11:26:33;;;;;;;249.35;132.50;;;10.60;99.90;;;;;;5026765;28;20280;-75
2023/02/19 11:29:01;;;;;;;;;;;10.70;99.90;;;;;;5034160;28;20017;-75
2023/02/19 11:31:34;;;;;;;241.50;129.95;;;10.70;99.90;;;;;;5012559;28;19928;-77
2023/02/19 11:33:59;;;;;;;256.30;134.43;;;10.70;99.90;;;;;;5011519;28;20079;-77
2023/02/19 11:36:30;;;;;;;250.45;132.80;;;10.70;99.90;;;;;;5033256;28;20651;-76
2023/02/19 11:38:59;;;;;;;254.32;132.23;;;10.80;99.90;;;;;;5027440;28;20504;-77
2023/02/19 11:41:49;;;;;;;251.57;129.35;;;10.90;99.90;;;;;;5033390;28;20021;-77
2023/02/19 11:44:31;;;;;;;253.18;132.98;;;10.90;99.90;;;;;;5033339;28;20032;-77
2023/02/19 11:47:15;;;;;;;251.05;134.48;;;11.00;99.90;;;;;;5018773;28;20644;-77
2023/02/19 11:50:01;;;;;;;240.35;127.85;;;10.90;99.90;;;;;;5033015;28;20029;-77
2023/02/19 11:52:43;;;;;;;255.10;130.95;;;11.00;99.90;;;;;;5033029;28;20026;-77
2023/02/19 11:55:17;;;;;;;246.80;129.93;;;11.10;99.90;;;;;;5033289;28;20108;-77
2023/02/19 11:57:55;;;;;;;248.32;126.75;;;11.10;99.90;;;;;;5031863;28;20099;-77
2023/02/19 12:00:27;;;;;;;247.98;125.95;;;11.10;99.90;;;;;;5024529;28;20397;-77
2023/02/19 12:03:03;;;;;;;246.93;129.48;;;11.20;99.90;;;;;;5023270;28;20113;-77
2023/02/19 12:05:42;;;;;;;243.50;129.60;;;11.20;99.90;;;;;;5007324;28;20121;-77
2023/02/19 12:08:16;;;;;;;244.70;128.20;;;11.30;99.90;;;;;;5029404;28;20112;-77
2023/02/19 12:11:07;;;;;;;236.05;123.65;;;11.30;99.90;;;;;;5001442;28;20033;-77
2023/02/19 12:13:48;;;;;;;243.50;124.60;;;11.30;99.90;;;;;;5029503;28;20060;-77
2023/02/19 12:16:14;;;;;;;233.65;120.65;;;11.40;99.90;;;;;;5026379;28;20026;-77
2023/02/19 12:18:55;;;;;;;228.00;119.25;;;11.40;99.90;;;;;;5013139;28;20108;-77
2023/02/19 12:22:24;;;;;;;233.68;124.10;;;11.40;99.90;;;;;;5028479;28;20172;-77
2023/02/19 12:24:58;;;;;;;226.35;119.38;;;11.40;99.90;;;;;;4941236;28;20105;-77
2023/02/19 12:27:38;;;;;;;223.18;117.40;;;11.50;99.90;;;;;;5018890;28;20085;-77
2023/02/19 12:30:30;;;;;;;231.35;119.97;;;11.60;99.90;;;;;;5011623;28;20389;-77
2023/02/19 12:33:29;;;;;;;229.05;119.80;;;11.60;99.90;;;;;;5023652;28;20025;-77
2023/02/19 12:36:19;;;;;;;221.15;115.15;;;11.70;99.90;;;;;;5029383;28;20104;-77
2023/02/19 12:39:32;;;;;;;239.48;117.60;;;11.80;99.90;;;;;;5029735;28;20046;-77
2023/02/19 12:42:14;;;;;;;226.18;115.47;;;11.90;99.90;;;;;;5027575;28;20034;-77
2023/02/19 12:44:52;;;;;;;230.75;114.40;;;11.90;99.90;;;;;;5028505;28;20026;-77
2023/02/19 12:47:26;;;;;;;224.63;117.32;;;12.00;99.90;;;;;;5013875;28;20106;-77
2023/02/19 12:50:19;;;;;;;219.32;114.68;;;11.90;99.90;;;;;;5031645;28;20451;-77
2023/02/19 12:52:49;;;;;;;207.55;110.38;;;11.90;99.90;;;;;;5023029;28;20043;-77
2023/02/19 12:55:20;;;;;;;215.05;111.35;;;11.90;99.90;;;;;;5031533;28;20045;-77
2023/02/19 12:57:46;;;;;;;205.80;107.57;;;11.90;99.90;;;;;;5031597;28;20057;-77
2023/02/19 13:00:38;;;;;;;204.70;107.85;;;12.00;99.90;;;;;;5027632;28;20021;-77
2023/02/19 13:03:08;;;;;;;215.80;111.72;;;12.00;99.90;;;;;;5031934;28;20022;-77